sensor_id;sensor_type;location;lat;lon;timestamp;temperature;humidity
23813;DHT22;12087;45.190;5.688;2023-01-29T00:02:39;3.00;99.90
23813;DHT22;12087;45.190;5.688;2023-01-29T00:08:01;3.00;99.90
23813;DHT22;12087;45.190;5.688;2023-01-29T00:13:24;3.00;99.90
23813;DHT22;12087;45.190;5.688;2023-01-29T00:18:47;3.00;99.90
23813;DHT22;12087;45.190;5.688;2023-01-29T00:24:09;3.00;99.90
23813;DHT22;12087;45.190;5.688;2023-01-29T00:29:32;3.00;99.90
23813;DHT22;12087;45.190;5.688;2023-01-29T00:34:55;3.00;99.90
23813;DHT22;12087;45.190;5.688;2023-01-29T00:40:18;3.00;99.90
23813;DHT22;12087;45.190;5.688;2023-01-29T00:45:40;3.00;99.90
23813;DHT22;12087;45.190;5.688;2023-01-29T00:51:04;2.90;99.90
23813;DHT22;12087;45.190;5.688;2023-01-29T00:56:27;2.90;99.90
23813;DHT22;12087;45.190;5.688;2023-01-29T01:01:50;2.90;99.90
23813;DHT22;12087;45.190;5.688;2023-01-29T01:07:31;2.90;99.90
23813;DHT22;12087;45.190;5.688;2023-01-29T01:12:55;2.90;99.90
23813;DHT22;12087;45.190;5.688;2023-01-29T01:18:18;2.90;99.90
23813;DHT22;12087;45.190;5.688;2023-01-29T01:23:43;2.90;99.90
23813;DHT22;12087;45.190;5.688;2023-01-29T01:29:05;2.90;99.90
23813;DHT22;12087;45.190;5.688;2023-01-29T01:34:29;2.90;99.90
23813;DHT22;12087;45.190;5.688;2023-01-29T01:39:52;2.90;99.90
23813;DHT22;12087;45.190;5.688;2023-01-29T01:45:20;2.90;99.90
23813;DHT22;12087;45.190;5.688;2023-01-29T01:50:45;2.90;99.90
23813;DHT22;12087;45.190;5.688;2023-01-29T01:56:14;2.90;99.90
23813;DHT22;12087;45.190;5.688;2023-01-29T02:01:38;3.00;99.90
23813;DHT22;12087;45.190;5.688;2023-01-29T02:07:03;3.00;99.90
23813;DHT22;12087;45.190;5.688;2023-01-29T02:12:47;3.10;99.90
23813;DHT22;12087;45.190;5.688;2023-01-29T02:18:09;3.10;99.90
23813;DHT22;12087;45.190;5.688;2023-01-29T02:29:35;3.10;99.90
23813;DHT22;12087;45.190;5.688;2023-01-29T02:35:09;3.10;99.90
23813;DHT22;12087;45.190;5.688;2023-01-29T02:40:51;3.10;99.90
23813;DHT22;12087;45.190;5.688;2023-01-29T02:46:24;3.10;99.90
23813;DHT22;12087;45.190;5.688;2023-01-29T02:51:53;3.20;99.90
23813;DHT22;12087;45.190;5.688;2023-01-29T02:57:21;3.20;99.90
23813;DHT22;12087;45.190;5.688;2023-01-29T03:02:50;3.20;99.90
23813;DHT22;12087;45.190;5.688;2023-01-29T03:08:19;3.30;99.90
23813;DHT22;12087;45.190;5.688;2023-01-29T03:13:45;3.30;99.90
23813;DHT22;12087;45.190;5.688;2023-01-29T03:19:12;3.30;99.90
23813;DHT22;12087;45.190;5.688;2023-01-29T03:24:40;3.30;99.90
23813;DHT22;12087;45.190;5.688;2023-01-29T03:30:24;3.30;99.90
23813;DHT22;12087;45.190;5.688;2023-01-29T03:36:10;3.40;99.90
23813;DHT22;12087;45.190;5.688;2023-01-29T03:41:36;3.40;99.90
23813;DHT22;12087;45.190;5.688;2023-01-29T03:47:08;3.40;99.90
23813;DHT22;12087;45.190;5.688;2023-01-29T03:52:41;3.40;99.90
23813;DHT22;12087;45.190;5.688;2023-01-29T03:58:15;3.30;99.90
23813;DHT22;12087;45.190;5.688;2023-01-29T04:03:47;3.40;99.90
23813;DHT22;12087;45.190;5.688;2023-01-29T04:09:15;3.30;99.90
23813;DHT22;12087;45.190;5.688;2023-01-29T04:14:40;3.40;99.90
23813;DHT22;12087;45.190;5.688;2023-01-29T04:20:02;3.40;99.90
23813;DHT22;12087;45.190;5.688;2023-01-29T04:25:29;3.30;99.90
23813;DHT22;12087;45.190;5.688;2023-01-29T04:30:55;3.30;99.90
23813;DHT22;12087;45.190;5.688;2023-01-29T04:36:29;3.30;99.90
23813;DHT22;12087;45.190;5.688;2023-01-29T04:42:03;3.30;99.90
23813;DHT22;12087;45.190;5.688;2023-01-29T04:47:32;3.30;99.90
23813;DHT22;12087;45.190;5.688;2023-01-29T04:53:02;3.30;99.90
23813;DHT22;12087;45.190;5.688;2023-01-29T04:58:33;3.20;99.90
23813;DHT22;12087;45.190;5.688;2023-01-29T05:04:00;3.20;99.90
23813;DHT22;12087;45.190;5.688;2023-01-29T05:09:24;3.20;99.90
23813;DHT22;12087;45.190;5.688;2023-01-29T05:14:48;3.20;99.90
23813;DHT22;12087;45.190;5.688;2023-01-29T05:20:12;3.10;99.90
23813;DHT22;12087;45.190;5.688;2023-01-29T05:25:34;3.10;99.90
23813;DHT22;12087;45.190;5.688;2023-01-29T05:30:58;3.00;99.90
23813;DHT22;12087;45.190;5.688;2023-01-29T05:36:22;3.10;99.90
23813;DHT22;12087;45.190;5.688;2023-01-29T05:41:46;3.10;99.90
23813;DHT22;12087;45.190;5.688;2023-01-29T05:47:10;3.10;99.90
23813;DHT22;12087;45.190;5.688;2023-01-29T05:52:32;3.10;99.90
23813;DHT22;12087;45.190;5.688;2023-01-29T05:57:54;3.10;99.90
23813;DHT22;12087;45.190;5.688;2023-01-29T06:03:18;3.20;99.90
23813;DHT22;12087;45.190;5.688;2023-01-29T06:08:40;3.10;99.90
23813;DHT22;12087;45.190;5.688;2023-01-29T06:14:03;3.10;99.90
23813;DHT22;12087;45.190;5.688;2023-01-29T06:19:26;3.10;99.90
23813;DHT22;12087;45.190;5.688;2023-01-29T06:24:49;3.10;99.90
23813;DHT22;12087;45.190;5.688;2023-01-29T06:30:12;3.10;99.90
23813;DHT22;12087;45.190;5.688;2023-01-29T06:35:35;3.00;99.90
23813;DHT22;12087;45.190;5.688;2023-01-29T06:40:58;2.90;99.90
23813;DHT22;12087;45.190;5.688;2023-01-29T06:46:20;2.90;99.90
23813;DHT22;12087;45.190;5.688;2023-01-29T06:51:44;2.90;99.90
23813;DHT22;12087;45.190;5.688;2023-01-29T06:57:06;2.90;99.90
23813;DHT22;12087;45.190;5.688;2023-01-29T07:02:28;2.90;99.90
23813;DHT22;12087;45.190;5.688;2023-01-29T07:07:52;2.90;99.90
23813;DHT22;12087;45.190;5.688;2023-01-29T07:13:14;2.80;99.90
23813;DHT22;12087;45.190;5.688;2023-01-29T07:18:37;2.80;99.90
23813;DHT22;12087;45.190;5.688;2023-01-29T07:24:00;2.90;99.90
23813;DHT22;12087;45.190;5.688;2023-01-29T07:29:23;2.80;99.90
23813;DHT22;12087;45.190;5.688;2023-01-29T07:34:45;2.80;99.90
23813;DHT22;12087;45.190;5.688;2023-01-29T07:40:10;2.80;99.90
23813;DHT22;12087;45.190;5.688;2023-01-29T07:45:33;2.80;99.90
23813;DHT22;12087;45.190;5.688;2023-01-29T07:50:56;2.80;99.90
23813;DHT22;12087;45.190;5.688;2023-01-29T07:56:20;2.80;99.90
23813;DHT22;12087;45.190;5.688;2023-01-29T08:01:42;2.80;99.90
23813;DHT22;12087;45.190;5.688;2023-01-29T08:07:05;2.80;99.90
23813;DHT22;12087;45.190;5.688;2023-01-29T08:12:35;2.80;99.90
23813;DHT22;12087;45.190;5.688;2023-01-29T08:18:01;2.80;99.90
23813;DHT22;12087;45.190;5.688;2023-01-29T08:23:38;2.80;99.90
23813;DHT22;12087;45.190;5.688;2023-01-29T08:29:06;2.80;99.90
23813;DHT22;12087;45.190;5.688;2023-01-29T08:34:32;2.80;99.90
23813;DHT22;12087;45.190;5.688;2023-01-29T08:39:54;2.80;99.90
23813;DHT22;12087;45.190;5.688;2023-01-29T08:45:18;2.80;99.90
23813;DHT22;12087;45.190;5.688;2023-01-29T08:50:40;2.80;99.90
23813;DHT22;12087;45.190;5.688;2023-01-29T08:56:03;2.80;99.90
23813;DHT22;12087;45.190;5.688;2023-01-29T09:01:27;2.80;99.90
23813;DHT22;12087;45.190;5.688;2023-01-29T09:06:49;2.80;99.90
23813;DHT22;12087;45.190;5.688;2023-01-29T09:12:11;2.80;99.90
23813;DHT22;12087;45.190;5.688;2023-01-29T09:17:35;2.90;99.90
23813;DHT22;12087;45.190;5.688;2023-01-29T09:22:57;2.90;99.90
23813;DHT22;12087;45.190;5.688;2023-01-29T09:28:19;2.90;99.90
23813;DHT22;12087;45.190;5.688;2023-01-29T09:33:43;2.90;99.90
23813;DHT22;12087;45.190;5.688;2023-01-29T09:39:06;3.00;99.90
23813;DHT22;12087;45.190;5.688;2023-01-29T09:44:39;3.10;99.90
23813;DHT22;12087;45.190;5.688;2023-01-29T09:50:11;3.20;99.90
23813;DHT22;12087;45.190;5.688;2023-01-29T09:55:40;3.20;99.90
23813;DHT22;12087;45.190;5.688;2023-01-29T10:01:12;3.20;99.90
23813;DHT22;12087;45.190;5.688;2023-01-29T10:06:45;3.20;99.90
23813;DHT22;12087;45.190;5.688;2023-01-29T10:12:25;3.30;99.90
23813;DHT22;12087;45.190;5.688;2023-01-29T10:18:02;3.40;99.90
23813;DHT22;12087;45.190;5.688;2023-01-29T10:23:29;3.30;99.90
23813;DHT22;12087;45.190;5.688;2023-01-29T10:28:54;3.30;99.90
23813;DHT22;12087;45.190;5.688;2023-01-29T10:34:24;3.30;99.90
23813;DHT22;12087;45.190;5.688;2023-01-29T10:39:50;3.40;99.90
23813;DHT22;12087;45.190;5.688;2023-01-29T10:45:19;3.50;99.90
23813;DHT22;12087;45.190;5.688;2023-01-29T10:50:47;3.50;99.90
23813;DHT22;12087;45.190;5.688;2023-01-29T10:56:23;3.70;99.90
23813;DHT22;12087;45.190;5.688;2023-01-29T11:01:49;3.90;99.90
23813;DHT22;12087;45.190;5.688;2023-01-29T11:07:12;3.90;99.90
23813;DHT22;12087;45.190;5.688;2023-01-29T11:12:36;4.00;99.90
23813;DHT22;12087;45.190;5.688;2023-01-29T11:18:05;4.00;99.90
23813;DHT22;12087;45.190;5.688;2023-01-29T11:23:32;4.20;99.90
23813;DHT22;12087;45.190;5.688;2023-01-29T11:28:56;4.20;99.90
23813;DHT22;12087;45.190;5.688;2023-01-29T11:34:20;4.20;99.90
23813;DHT22;12087;45.190;5.688;2023-01-29T11:39:45;4.20;99.90
23813;DHT22;12087;45.190;5.688;2023-01-29T11:45:24;4.30;99.90
23813;DHT22;12087;45.190;5.688;2023-01-29T11:50:54;4.40;99.90
23813;DHT22;12087;45.190;5.688;2023-01-29T11:56:21;4.40;99.90
23813;DHT22;12087;45.190;5.688;2023-01-29T12:01:45;4.50;99.90
23813;DHT22;12087;45.190;5.688;2023-01-29T12:07:11;4.50;99.90
23813;DHT22;12087;45.190;5.688;2023-01-29T12:12:40;4.60;99.90
23813;DHT22;12087;45.190;5.688;2023-01-29T12:18:10;4.60;99.90
23813;DHT22;12087;45.190;5.688;2023-01-29T12:23:37;4.60;99.90
23813;DHT22;12087;45.190;5.688;2023-01-29T12:29:20;4.60;99.90
23813;DHT22;12087;45.190;5.688;2023-01-29T12:34:49;4.80;99.90
23813;DHT22;12087;45.190;5.688;2023-01-29T12:40:15;4.80;99.90
23813;DHT22;12087;45.190;5.688;2023-01-29T12:45:38;4.90;99.90
23813;DHT22;12087;45.190;5.688;2023-01-29T12:51:08;4.90;99.90
23813;DHT22;12087;45.190;5.688;2023-01-29T12:56:35;5.00;99.90
23813;DHT22;12087;45.190;5.688;2023-01-29T13:02:09;5.10;99.90
23813;DHT22;12087;45.190;5.688;2023-01-29T13:07:41;5.10;99.90
23813;DHT22;12087;45.190;5.688;2023-01-29T13:13:13;5.20;99.90
23813;DHT22;12087;45.190;5.688;2023-01-29T13:18:40;5.20;99.90
23813;DHT22;12087;45.190;5.688;2023-01-29T13:24:11;5.20;99.90
23813;DHT22;12087;45.190;5.688;2023-01-29T13:29:34;5.20;99.90
23813;DHT22;12087;45.190;5.688;2023-01-29T13:34:58;5.20;99.90
23813;DHT22;12087;45.190;5.688;2023-01-29T13:40:24;5.20;99.90
23813;DHT22;12087;45.190;5.688;2023-01-29T13:45:48;5.20;99.90
23813;DHT22;12087;45.190;5.688;2023-01-29T13:51:14;5.30;99.90
23813;DHT22;12087;45.190;5.688;2023-01-29T13:56:56;5.30;99.90
23813;DHT22;12087;45.190;5.688;2023-01-29T14:08:38;5.30;99.90
23813;DHT22;12087;45.190;5.688;2023-01-29T14:20:17;5.40;99.90
23813;DHT22;12087;45.190;5.688;2023-01-29T14:25:40;5.40;99.90
23813;DHT22;12087;45.190;5.688;2023-01-29T14:31:04;5.30;99.90
23813;DHT22;12087;45.190;5.688;2023-01-29T14:36:27;5.30;99.90
23813;DHT22;12087;45.190;5.688;2023-01-29T14:41:50;5.20;99.90
23813;DHT22;12087;45.190;5.688;2023-01-29T14:47:19;5.20;99.90
23813;DHT22;12087;45.190;5.688;2023-01-29T14:52:42;5.10;99.90
23813;DHT22;12087;45.190;5.688;2023-01-29T14:58:12;5.20;99.90
23813;DHT22;12087;45.190;5.688;2023-01-29T15:03:42;5.10;99.90
23813;DHT22;12087;45.190;5.688;2023-01-29T15:09:11;5.10;99.90
23813;DHT22;12087;45.190;5.688;2023-01-29T15:14:36;5.00;99.90
23813;DHT22;12087;45.190;5.688;2023-01-29T15:20:30;5.00;99.90
23813;DHT22;12087;45.190;5.688;2023-01-29T15:25:55;5.00;99.90
23813;DHT22;12087;45.190;5.688;2023-01-29T15:31:18;4.90;99.90
23813;DHT22;12087;45.190;5.688;2023-01-29T15:36:42;4.80;99.90
23813;DHT22;12087;45.190;5.688;2023-01-29T15:42:13;4.80;99.90
23813;DHT22;12087;45.190;5.688;2023-01-29T15:47:41;4.70;99.90
23813;DHT22;12087;45.190;5.688;2023-01-29T15:53:12;4.70;99.90
23813;DHT22;12087;45.190;5.688;2023-01-29T15:58:37;4.60;99.90
23813;DHT22;12087;45.190;5.688;2023-01-29T16:04:01;4.60;99.90
23813;DHT22;12087;45.190;5.688;2023-01-29T16:09:26;4.60;99.90
23813;DHT22;12087;45.190;5.688;2023-01-29T16:14:49;4.50;99.90
23813;DHT22;12087;45.190;5.688;2023-01-29T16:20:28;4.50;99.90
23813;DHT22;12087;45.190;5.688;2023-01-29T16:25:54;4.40;99.90
23813;DHT22;12087;45.190;5.688;2023-01-29T16:31:21;4.30;99.90
23813;DHT22;12087;45.190;5.688;2023-01-29T16:36:44;4.30;99.90
23813;DHT22;12087;45.190;5.688;2023-01-29T16:42:24;4.20;99.90
23813;DHT22;12087;45.190;5.688;2023-01-29T16:47:59;4.10;99.90
23813;DHT22;12087;45.190;5.688;2023-01-29T16:53:28;4.10;99.90
23813;DHT22;12087;45.190;5.688;2023-01-29T16:58:52;4.00;99.90
23813;DHT22;12087;45.190;5.688;2023-01-29T17:04:18;3.90;99.90
23813;DHT22;12087;45.190;5.688;2023-01-29T17:09:40;3.80;99.90
23813;DHT22;12087;45.190;5.688;2023-01-29T17:15:29;3.70;99.90
23813;DHT22;12087;45.190;5.688;2023-01-29T17:20:52;3.60;99.90
23813;DHT22;12087;45.190;5.688;2023-01-29T17:26:14;3.60;99.90
23813;DHT22;12087;45.190;5.688;2023-01-29T17:31:38;3.50;99.90
23813;DHT22;12087;45.190;5.688;2023-01-29T17:37:01;3.50;99.90
23813;DHT22;12087;45.190;5.688;2023-01-29T17:42:23;3.40;99.90
23813;DHT22;12087;45.190;5.688;2023-01-29T17:47:50;3.40;99.90
23813;DHT22;12087;45.190;5.688;2023-01-29T17:53:13;3.30;99.90
23813;DHT22;12087;45.190;5.688;2023-01-29T17:58:35;3.20;99.90
23813;DHT22;12087;45.190;5.688;2023-01-29T18:03:59;3.10;99.90
23813;DHT22;12087;45.190;5.688;2023-01-29T18:09:21;3.10;99.90
23813;DHT22;12087;45.190;5.688;2023-01-29T18:14:44;3.00;99.90
23813;DHT22;12087;45.190;5.688;2023-01-29T18:20:17;3.00;99.90
23813;DHT22;12087;45.190;5.688;2023-01-29T18:25:40;2.90;99.90
23813;DHT22;12087;45.190;5.688;2023-01-29T18:31:03;2.90;99.90
23813;DHT22;12087;45.190;5.688;2023-01-29T18:36:27;2.90;99.90
23813;DHT22;12087;45.190;5.688;2023-01-29T18:41:50;2.80;99.90
23813;DHT22;12087;45.190;5.688;2023-01-29T18:47:12;2.80;99.90
23813;DHT22;12087;45.190;5.688;2023-01-29T18:52:36;2.70;99.90
23813;DHT22;12087;45.190;5.688;2023-01-29T18:57:58;2.70;99.90
23813;DHT22;12087;45.190;5.688;2023-01-29T19:03:20;2.60;99.90
23813;DHT22;12087;45.190;5.688;2023-01-29T19:08:44;2.50;99.90
23813;DHT22;12087;45.190;5.688;2023-01-29T19:14:07;2.50;99.90
23813;DHT22;12087;45.190;5.688;2023-01-29T19:19:29;2.40;99.90
23813;DHT22;12087;45.190;5.688;2023-01-29T19:24:53;2.40;99.90
23813;DHT22;12087;45.190;5.688;2023-01-29T19:30:15;2.30;99.90
23813;DHT22;12087;45.190;5.688;2023-01-29T19:35:38;2.20;99.90
23813;DHT22;12087;45.190;5.688;2023-01-29T19:41:06;2.20;99.90
23813;DHT22;12087;45.190;5.688;2023-01-29T19:46:29;2.10;99.90
23813;DHT22;12087;45.190;5.688;2023-01-29T19:51:53;2.10;99.90
23813;DHT22;12087;45.190;5.688;2023-01-29T19:57:19;2.10;99.90
23813;DHT22;12087;45.190;5.688;2023-01-29T20:02:42;2.00;99.90
23813;DHT22;12087;45.190;5.688;2023-01-29T20:08:04;2.00;99.90
23813;DHT22;12087;45.190;5.688;2023-01-29T20:13:28;2.00;99.90
23813;DHT22;12087;45.190;5.688;2023-01-29T20:18:51;2.00;99.90
23813;DHT22;12087;45.190;5.688;2023-01-29T20:24:13;2.00;99.90
23813;DHT22;12087;45.190;5.688;2023-01-29T20:29:38;2.00;99.90
23813;DHT22;12087;45.190;5.688;2023-01-29T20:35:01;1.90;99.90
23813;DHT22;12087;45.190;5.688;2023-01-29T20:40:24;1.80;99.90
23813;DHT22;12087;45.190;5.688;2023-01-29T20:45:48;1.80;99.90
23813;DHT22;12087;45.190;5.688;2023-01-29T20:51:12;1.80;99.90
23813;DHT22;12087;45.190;5.688;2023-01-29T20:56:35;1.80;99.90
23813;DHT22;12087;45.190;5.688;2023-01-29T21:01:59;1.80;99.90
23813;DHT22;12087;45.190;5.688;2023-01-29T21:07:21;1.90;99.90
23813;DHT22;12087;45.190;5.688;2023-01-29T21:12:43;1.80;99.90
23813;DHT22;12087;45.190;5.688;2023-01-29T21:18:07;1.90;99.90
23813;DHT22;12087;45.190;5.688;2023-01-29T21:23:29;2.10;99.90
23813;DHT22;12087;45.190;5.688;2023-01-29T21:28:52;2.20;99.90
23813;DHT22;12087;45.190;5.688;2023-01-29T21:34:15;2.20;99.90
23813;DHT22;12087;45.190;5.688;2023-01-29T21:39:38;2.20;99.90
23813;DHT22;12087;45.190;5.688;2023-01-29T21:45:00;2.30;99.90
23813;DHT22;12087;45.190;5.688;2023-01-29T21:50:24;2.30;99.90
23813;DHT22;12087;45.190;5.688;2023-01-29T21:55:46;2.40;99.90
23813;DHT22;12087;45.190;5.688;2023-01-29T22:01:09;2.50;99.90
23813;DHT22;12087;45.190;5.688;2023-01-29T22:06:32;2.50;99.90
23813;DHT22;12087;45.190;5.688;2023-01-29T22:11:54;2.50;99.90
23813;DHT22;12087;45.190;5.688;2023-01-29T22:17:17;2.40;99.90
23813;DHT22;12087;45.190;5.688;2023-01-29T22:22:41;2.40;99.90
23813;DHT22;12087;45.190;5.688;2023-01-29T22:28:04;2.50;99.90
23813;DHT22;12087;45.190;5.688;2023-01-29T22:33:28;2.40;99.90
23813;DHT22;12087;45.190;5.688;2023-01-29T22:38:53;2.50;99.90
23813;DHT22;12087;45.190;5.688;2023-01-29T22:44:15;2.50;99.90
23813;DHT22;12087;45.190;5.688;2023-01-29T22:49:38;2.50;99.90
23813;DHT22;12087;45.190;5.688;2023-01-29T22:55:02;2.50;99.90
23813;DHT22;12087;45.190;5.688;2023-01-29T23:00:25;2.60;99.90
23813;DHT22;12087;45.190;5.688;2023-01-29T23:05:50;2.50;99.90
23813;DHT22;12087;45.190;5.688;2023-01-29T23:11:16;2.50;99.90
23813;DHT22;12087;45.190;5.688;2023-01-29T23:16:40;2.60;99.90
23813;DHT22;12087;45.190;5.688;2023-01-29T23:22:02;2.60;99.90
23813;DHT22;12087;45.190;5.688;2023-01-29T23:27:27;2.60;99.90
23813;DHT22;12087;45.190;5.688;2023-01-29T23:32:49;2.60;99.90
23813;DHT22;12087;45.190;5.688;2023-01-29T23:38:12;2.70;99.90
23813;DHT22;12087;45.190;5.688;2023-01-29T23:43:35;2.60;99.90
23813;DHT22;12087;45.190;5.688;2023-01-29T23:48:58;2.70;99.90
23813;DHT22;12087;45.190;5.688;2023-01-29T23:54:20;2.60;99.90
23813;DHT22;12087;45.190;5.688;2023-01-29T23:59:44;2.70;99.90
